Time;durP1;ratioP1;P1;durP2;ratioP2;P2;SDS_P1;SDS_P2;PMS_P1;PMS_P2;Temp;Humidity;BMP_temperature;BMP_pressure;BME280_temperature;BME280_humidity;BME280_pressure;Samples;Min_cycle;Max_cycle;Signal;HPM_P1;HPM_P2
2021/03/11 00:02:22;;;;;;;17.97;13.47;;;;;;;;;;5032387;28;20251;-59
2021/03/11 00:04:48;;;;;;;15.33;11.93;;;;;;;;;;5037466;28;20536;-59
2021/03/11 00:07:15;;;;;;;16.03;11.70;;;;;;;;;;5030883;28;20383;-59
2021/03/11 00:09:41;;;;;;;17.00;12.57;;;;;;;;;;5046541;28;20619;-61
2021/03/11 00:12:08;;;;;;;17.60;13.50;;;;;;;;;;5038199;28;20260;-59
2021/03/11 00:14:34;;;;;;;15.30;11.87;;;;;;;;;;5040540;28;20696;-59
2021/03/11 00:17:00;;;;;;;15.43;11.93;;;;;;;;;;5030305;28;20169;-58
2021/03/11 00:19:26;;;;;;;15.90;12.30;;;;;;;;;;5043580;28;20189;-61
2021/03/11 00:21:52;;;;;;;16.17;11.90;;;;;;;;;;5048243;28;20628;-59
2021/03/11 00:24:18;;;;;;;16.03;11.90;;;;;;;;;;5035918;28;20181;-59
2021/03/11 00:26:44;;;;;;;14.00;10.90;;;;;;;;;;5048708;28;20508;-59
2021/03/11 00:29:10;;;;;;;17.37;12.80;;;;;;;;;;5037650;28;20249;-59
2021/03/11 00:31:36;;;;;;;15.50;12.27;;;;;;;;;;5036216;28;20185;-61
2021/03/11 00:34:02;;;;;;;15.43;12.50;;;;;;;;;;5042167;28;20182;-59
2021/03/11 00:36:28;;;;;;;15.47;11.70;;;;;;;;;;5040625;28;20181;-59
2021/03/11 00:38:54;;;;;;;12.93;10.50;;;;;;;;;;5045534;28;20177;-58
2021/03/11 00:41:20;;;;;;;17.90;13.57;;;;;;;;;;5041781;28;20285;-58
2021/03/11 00:43:46;;;;;;;15.57;11.93;;;;;;;;;;5029594;28;20265;-62
2021/03/11 00:46:12;;;;;;;16.03;11.97;;;;;;;;;;5038557;28;20649;-58
2021/03/11 00:48:38;;;;;;;15.13;11.60;;;;;;;;;;5034179;28;20205;-59
2021/03/11 00:51:04;;;;;;;16.40;12.53;;;;;;;;;;5037826;28;20193;-58
2021/03/11 00:53:31;;;;;;;17.07;11.87;;;;;;;;;;5047282;28;20240;-59
2021/03/11 00:55:57;;;;;;;17.53;11.90;;;;;;;;;;5044829;28;20181;-60
2021/03/11 00:58:23;;;;;;;15.80;11.73;;;;;;;;;;5053280;28;20177;-59
2021/03/11 01:00:50;;;;;;;14.60;11.37;;;;;;;;;;5055289;28;20643;-59
2021/03/11 01:03:16;;;;;;;16.93;11.17;;;;;;;;;;5059006;28;20177;-59
2021/03/11 01:05:42;;;;;;;15.57;12.37;;;;;;;;;;5054956;28;20184;-59
2021/03/11 01:08:08;;;;;;;15.83;11.37;;;;;;;;;;5047186;28;20235;-59
2021/03/11 01:10:36;;;;;;;15.00;11.07;;;;;;;;;;5047510;28;20225;-59
2021/03/11 01:13:02;;;;;;;17.17;11.87;;;;;;;;;;5041898;28;20177;-60
2021/03/11 01:15:30;;;;;;;13.57;11.10;;;;;;;;;;5044776;28;20180;-57
2021/03/11 01:17:56;;;;;;;14.50;10.63;;;;;;;;;;5030196;28;20213;-57
2021/03/11 01:20:22;;;;;;;14.53;10.77;;;;;;;;;;5031464;28;20654;-59
2021/03/11 01:22:48;;;;;;;13.73;11.13;;;;;;;;;;5040245;28;20268;-59
2021/03/11 01:25:14;;;;;;;14.90;11.37;;;;;;;;;;5030980;28;20182;-57
2021/03/11 01:27:40;;;;;;;13.67;10.13;;;;;;;;;;5030028;28;20722;-59
2021/03/11 01:30:07;;;;;;;14.93;11.63;;;;;;;;;;5043724;28;20193;-59
2021/03/11 01:32:33;;;;;;;15.87;11.63;;;;;;;;;;5029033;28;20563;-59
2021/03/11 01:34:59;;;;;;;14.90;11.30;;;;;;;;;;5043529;28;20231;-60
2021/03/11 01:37:25;;;;;;;13.10;10.47;;;;;;;;;;5048184;28;20204;-59
2021/03/11 01:39:51;;;;;;;13.07;10.50;;;;;;;;;;5034693;28;20186;-59
2021/03/11 01:42:17;;;;;;;16.93;11.23;;;;;;;;;;5029538;28;20182;-60
2021/03/11 01:44:43;;;;;;;14.07;10.50;;;;;;;;;;5039258;28;20647;-59
2021/03/11 01:47:09;;;;;;;13.30;9.63;;;;;;;;;;5044987;28;20236;-59
2021/03/11 01:49:35;;;;;;;14.43;10.30;;;;;;;;;;5030438;28;20672;-59
2021/03/11 01:52:02;;;;;;;14.07;10.10;;;;;;;;;;5036822;28;20269;-58
2021/03/11 01:54:29;;;;;;;13.37;9.63;;;;;;;;;;5046654;28;20178;-59
2021/03/11 01:56:55;;;;;;;12.50;9.80;;;;;;;;;;5042250;28;20184;-59
2021/03/11 01:59:21;;;;;;;11.90;9.27;;;;;;;;;;5034141;28;20185;-57
2021/03/11 02:01:47;;;;;;;14.73;9.63;;;;;;;;;;5033701;28;20185;-59
2021/03/11 02:04:13;;;;;;;11.93;8.57;;;;;;;;;;5040812;28;21712;-59
2021/03/11 02:06:39;;;;;;;12.23;8.40;;;;;;;;;;5034548;28;20181;-59
2021/03/11 02:09:05;;;;;;;10.07;7.93;;;;;;;;;;5042995;28;20754;-59
2021/03/11 02:11:32;;;;;;;10.27;7.33;;;;;;;;;;5035069;28;20625;-59
2021/03/11 02:13:58;;;;;;;9.47;7.80;;;;;;;;;;5038551;28;20306;-58
2021/03/11 02:16:27;;;;;;;8.63;6.70;;;;;;;;;;5047508;28;20230;-58
2021/03/11 02:18:59;;;;;;;10.23;7.47;;;;;;;;;;5040897;28;20593;-58
2021/03/11 02:21:41;;;;;;;8.73;6.33;;;;;;;;;;5032161;28;20527;-58
2021/03/11 02:24:07;;;;;;;8.77;5.57;;;;;;;;;;5047204;28;20965;-60
2021/03/11 02:26:52;;;;;;;7.80;5.80;;;;;;;;;;5043539;28;20182;-58
2021/03/11 02:29:21;;;;;;;9.13;5.93;;;;;;;;;;5038691;28;20307;-58
2021/03/11 02:31:48;;;;;;;9.90;5.40;;;;;;;;;;5047936;28;20193;-58
2021/03/11 02:34:19;;;;;;;5.33;4.60;;;;;;;;;;5043798;28;20638;-58
2021/03/11 02:36:47;;;;;;;8.43;5.03;;;;;;;;;;5034492;28;20178;-58
2021/03/11 02:39:15;;;;;;;5.33;4.57;;;;;;;;;;5039957;28;20190;-58
2021/03/11 02:41:43;;;;;;;7.37;4.50;;;;;;;;;;5049842;28;20185;-58
2021/03/11 02:44:10;;;;;;;5.53;4.43;;;;;;;;;;5036143;28;20807;-58
2021/03/11 02:46:37;;;;;;;6.70;4.37;;;;;;;;;;5051315;28;20192;-58
2021/03/11 02:49:03;;;;;;;6.90;4.13;;;;;;;;;;5032314;28;20287;-59
2021/03/11 02:51:29;;;;;;;4.57;3.57;;;;;;;;;;5034474;28;20178;-58
2021/03/11 02:53:57;;;;;;;4.80;3.83;;;;;;;;;;5031537;28;20272;-59
2021/03/11 02:56:24;;;;;;;5.23;4.30;;;;;;;;;;5043497;28;20185;-60
2021/03/11 02:58:50;;;;;;;4.60;3.77;;;;;;;;;;5039739;28;20181;-58
2021/03/11 03:01:18;;;;;;;5.40;3.97;;;;;;;;;;5042454;28;20182;-59
2021/03/11 03:03:44;;;;;;;4.30;3.50;;;;;;;;;;5043410;28;20184;-59
2021/03/11 03:06:11;;;;;;;4.87;3.30;;;;;;;;;;5041680;28;20193;-59
2021/03/11 03:08:38;;;;;;;5.57;3.57;;;;;;;;;;5041460;28;20181;-59
2021/03/11 03:11:04;;;;;;;3.67;3.27;;;;;;;;;;5041621;28;20178;-58
2021/03/11 03:13:30;;;;;;;4.70;3.83;;;;;;;;;;5035100;28;20216;-59
2021/03/11 03:15:58;;;;;;;4.63;3.23;;;;;;;;;;5050432;28;20173;-58
2021/03/11 03:18:25;;;;;;;3.80;3.40;;;;;;;;;;5039121;28;20177;-59
2021/03/11 03:20:51;;;;;;;4.50;3.03;;;;;;;;;;5045890;28;20189;-58
2021/03/11 03:23:19;;;;;;;3.90;2.97;;;;;;;;;;5047364;28;20194;-60
2021/03/11 03:25:46;;;;;;;3.27;2.67;;;;;;;;;;5041654;28;20185;-58
2021/03/11 03:28:12;;;;;;;3.93;2.67;;;;;;;;;;5046298;28;20226;-58
2021/03/11 03:30:38;;;;;;;3.07;2.73;;;;;;;;;;5047811;28;20193;-59
2021/03/11 03:33:04;;;;;;;3.10;2.60;;;;;;;;;;5049423;28;20169;-58
2021/03/11 03:35:30;;;;;;;3.40;3.10;;;;;;;;;;5045852;28;20186;-59
2021/03/11 03:37:56;;;;;;;7.17;2.93;;;;;;;;;;5039660;28;20200;-59
2021/03/11 03:40:23;;;;;;;3.30;2.77;;;;;;;;;;5048921;28;20231;-59
2021/03/11 03:42:52;;;;;;;3.63;2.90;;;;;;;;;;5050114;28;20181;-59
2021/03/11 03:45:20;;;;;;;4.60;2.60;;;;;;;;;;5036651;28;20185;-59
2021/03/11 03:47:48;;;;;;;3.57;3.07;;;;;;;;;;5031794;28;20213;-58
2021/03/11 03:50:15;;;;;;;3.63;2.63;;;;;;;;;;5041759;28;20347;-60
2021/03/11 03:52:42;;;;;;;2.73;2.50;;;;;;;;;;5050298;28;20722;-58
2021/03/11 03:55:09;;;;;;;3.50;2.90;;;;;;;;;;5045559;28;20538;-59
2021/03/11 03:57:37;;;;;;;3.90;2.70;;;;;;;;;;5057119;28;20186;-58
2021/03/11 04:00:05;;;;;;;3.13;2.80;;;;;;;;;;5060838;28;20201;-58
2021/03/11 04:02:32;;;;;;;4.40;3.27;;;;;;;;;;5036621;28;20215;-59
2021/03/11 04:04:58;;;;;;;3.20;2.83;;;;;;;;;;5050159;28;20303;-58
2021/03/11 04:07:25;;;;;;;4.00;2.97;;;;;;;;;;5034971;28;20196;-61
2021/03/11 04:09:52;;;;;;;3.10;2.80;;;;;;;;;;5030631;28;20209;-59
2021/03/11 04:12:19;;;;;;;3.13;2.60;;;;;;;;;;5036016;28;20238;-58
2021/03/11 04:14:45;;;;;;;2.93;2.57;;;;;;;;;;5048164;28;20173;-58
2021/03/11 04:17:12;;;;;;;3.67;2.83;;;;;;;;;;5049392;28;20701;-58
2021/03/11 04:19:39;;;;;;;2.97;2.50;;;;;;;;;;5030735;28;20279;-59
2021/03/11 04:22:05;;;;;;;4.37;2.77;;;;;;;;;;5030218;28;20166;-59
2021/03/11 04:24:32;;;;;;;4.07;3.13;;;;;;;;;;5032400;28;20638;-58
2021/03/11 04:27:01;;;;;;;3.70;2.77;;;;;;;;;;5049861;28;20581;-59
2021/03/11 04:29:28;;;;;;;3.90;3.13;;;;;;;;;;5043772;28;20257;-58
2021/03/11 04:31:54;;;;;;;3.83;3.43;;;;;;;;;;5049196;28;20223;-58
2021/03/11 04:34:21;;;;;;;3.33;3.03;;;;;;;;;;5046071;28;20252;-59
2021/03/11 04:36:48;;;;;;;4.20;3.03;;;;;;;;;;5044390;28;20235;-59
2021/03/11 04:39:14;;;;;;;4.30;3.40;;;;;;;;;;5045239;28;22128;-58
2021/03/11 04:41:40;;;;;;;4.20;3.30;;;;;;;;;;5047557;28;20181;-58
2021/03/11 04:44:06;;;;;;;4.60;3.70;;;;;;;;;;5042327;28;20178;-58
2021/03/11 04:46:33;;;;;;;3.97;2.87;;;;;;;;;;5032830;28;20220;-58
2021/03/11 04:49:00;;;;;;;3.97;3.13;;;;;;;;;;5036954;28;20196;-59
2021/03/11 04:51:27;;;;;;;4.23;3.50;;;;;;;;;;5041391;28;20193;-58
2021/03/11 04:53:53;;;;;;;3.87;3.10;;;;;;;;;;5036451;28;20488;-58
2021/03/11 04:56:20;;;;;;;4.70;3.30;;;;;;;;;;5045170;28;20191;-61
2021/03/11 04:58:46;;;;;;;4.03;3.10;;;;;;;;;;5047993;28;20252;-58
2021/03/11 05:01:13;;;;;;;3.50;3.03;;;;;;;;;;5042863;28;20207;-59
2021/03/11 05:03:46;;;;;;;3.50;2.80;;;;;;;;;;5039457;28;20220;-61
2021/03/11 05:06:12;;;;;;;4.83;3.43;;;;;;;;;;5036169;28;20419;-59
2021/03/11 05:08:38;;;;;;;4.57;3.00;;;;;;;;;;5035907;28;20189;-59
2021/03/11 05:11:04;;;;;;;4.50;3.13;;;;;;;;;;5034805;28;20181;-61
2021/03/11 05:13:30;;;;;;;3.97;3.30;;;;;;;;;;5042048;28;20284;-59
2021/03/11 05:16:00;;;;;;;3.53;3.13;;;;;;;;;;5049496;28;20211;-59
2021/03/11 05:18:27;;;;;;;4.60;3.30;;;;;;;;;;5045175;28;20189;-59
2021/03/11 05:20:53;;;;;;;3.33;3.03;;;;;;;;;;5041173;28;20182;-59
2021/03/11 05:23:20;;;;;;;3.60;3.30;;;;;;;;;;5042731;28;20216;-59
2021/03/11 05:25:46;;;;;;;4.17;3.43;;;;;;;;;;5047440;28;20265;-59
2021/03/11 05:28:12;;;;;;;4.07;3.53;;;;;;;;;;5045406;28;20220;-59
2021/03/11 05:30:38;;;;;;;3.33;3.03;;;;;;;;;;5045989;28;20687;-59
2021/03/11 05:33:04;;;;;;;3.77;3.17;;;;;;;;;;5043117;28;20268;-59
2021/03/11 05:35:30;;;;;;;4.33;3.07;;;;;;;;;;5041211;28;20181;-59
2021/03/11 05:37:57;;;;;;;3.43;3.07;;;;;;;;;;5049261;28;20218;-61
2021/03/11 05:40:24;;;;;;;5.80;3.50;;;;;;;;;;5046533;28;20208;-59
2021/03/11 05:42:52;;;;;;;4.20;3.00;;;;;;;;;;5030252;28;20189;-59
2021/03/11 05:45:19;;;;;;;3.80;2.90;;;;;;;;;;5042824;28;20254;-59
2021/03/11 05:47:46;;;;;;;5.03;3.73;;;;;;;;;;5050853;28;20483;-59
2021/03/11 05:50:12;;;;;;;3.97;3.23;;;;;;;;;;5038690;28;20211;-59
2021/03/11 05:52:38;;;;;;;4.63;3.60;;;;;;;;;;5051357;28;20185;-59
2021/03/11 05:55:05;;;;;;;3.83;3.47;;;;;;;;;;5059862;28;20255;-59
2021/03/11 05:57:31;;;;;;;4.50;3.10;;;;;;;;;;5069999;28;20184;-60
2021/03/11 05:59:58;;;;;;;3.80;3.40;;;;;;;;;;5071881;28;20179;-59
2021/03/11 06:02:24;;;;;;;4.70;3.13;;;;;;;;;;5071698;28;20173;-59
2021/03/11 06:04:53;;;;;;;5.23;3.03;;;;;;;;;;5060858;28;20276;-60
2021/03/11 06:07:19;;;;;;;3.83;2.70;;;;;;;;;;5051917;28;20169;-59
2021/03/11 06:09:46;;;;;;;4.00;3.13;;;;;;;;;;5049816;28;20189;-60
2021/03/11 06:12:12;;;;;;;4.60;3.80;;;;;;;;;;5051931;28;20636;-59
2021/03/11 06:14:38;;;;;;;3.90;2.87;;;;;;;;;;5049981;28;20298;-59
2021/03/11 06:17:07;;;;;;;4.23;3.20;;;;;;;;;;5032165;28;20269;-58
2021/03/11 06:19:33;;;;;;;4.07;3.40;;;;;;;;;;5031563;28;20178;-60
2021/03/11 06:22:00;;;;;;;4.50;3.37;;;;;;;;;;5037055;28;20173;-59
2021/03/11 06:24:26;;;;;;;4.90;3.30;;;;;;;;;;5062011;28;20185;-59
2021/03/11 06:26:52;;;;;;;4.43;3.40;;;;;;;;;;5072022;28;20180;-59
2021/03/11 06:29:21;;;;;;;4.03;3.17;;;;;;;;;;5064393;28;20235;-60
2021/03/11 06:31:47;;;;;;;3.40;3.10;;;;;;;;;;5057935;28;20204;-59
2021/03/11 06:34:23;;;;;;;3.43;3.13;;;;;;;;;;5049527;28;20257;-59
2021/03/11 06:36:49;;;;;;;4.40;4.00;;;;;;;;;;5062144;28;20180;-59
2021/03/11 06:39:22;;;;;;;4.70;3.33;;;;;;;;;;5051151;28;20225;-60
2021/03/11 06:41:48;;;;;;;3.97;3.13;;;;;;;;;;5050034;28;20180;-59
2021/03/11 06:44:14;;;;;;;5.37;3.57;;;;;;;;;;5054358;28;20177;-60
2021/03/11 06:46:55;;;;;;;4.47;3.27;;;;;;;;;;5051019;28;20715;-59
2021/03/11 06:49:21;;;;;;;3.53;3.10;;;;;;;;;;5053321;28;20216;-59
2021/03/11 06:51:47;;;;;;;3.93;3.17;;;;;;;;;;5034852;28;20178;-59
2021/03/11 06:54:14;;;;;;;4.03;3.13;;;;;;;;;;5028683;28;20170;-59
2021/03/11 06:56:43;;;;;;;3.93;3.57;;;;;;;;;;5031023;28;20185;-59
2021/03/11 06:59:09;;;;;;;4.60;3.63;;;;;;;;;;5029126;28;20289;-61
2021/03/11 07:01:36;;;;;;;4.23;3.57;;;;;;;;;;5048719;28;20181;-59
2021/03/11 07:04:03;;;;;;;3.90;3.50;;;;;;;;;;5046411;28;20231;-59
2021/03/11 07:06:29;;;;;;;4.17;3.33;;;;;;;;;;5030098;28;20197;-59
2021/03/11 07:08:55;;;;;;;4.17;3.57;;;;;;;;;;5034348;28;20656;-59
2021/03/11 07:11:21;;;;;;;4.43;3.47;;;;;;;;;;5042654;28;20178;-61
2021/03/11 07:13:48;;;;;;;5.07;3.80;;;;;;;;;;5039911;28;20214;-59
2021/03/11 07:16:18;;;;;;;4.50;3.43;;;;;;;;;;5034076;28;20603;-59
2021/03/11 07:18:44;;;;;;;3.80;3.40;;;;;;;;;;5029521;28;20540;-59
2021/03/11 07:21:10;;;;;;;3.70;3.20;;;;;;;;;;5030523;28;20181;-59
2021/03/11 07:23:43;;;;;;;4.27;3.70;;;;;;;;;;5035974;28;20252;-59
2021/03/11 07:26:09;;;;;;;4.73;3.20;;;;;;;;;;5033135;28;20641;-61
2021/03/11 07:28:36;;;;;;;3.93;3.43;;;;;;;;;;5049709;28;20217;-60
2021/03/11 07:31:03;;;;;;;4.27;3.50;;;;;;;;;;5050268;28;20251;-59
2021/03/11 07:33:30;;;;;;;3.43;2.93;;;;;;;;;;5050822;28;20312;-59
2021/03/11 07:35:57;;;;;;;4.27;3.80;;;;;;;;;;5040428;28;20639;-60
2021/03/11 07:38:25;;;;;;;5.03;3.77;;;;;;;;;;5026022;28;20181;-60
2021/03/11 07:40:52;;;;;;;4.70;3.77;;;;;;;;;;5036325;28;20587;-59
2021/03/11 07:43:18;;;;;;;5.13;3.53;;;;;;;;;;5029590;28;20645;-61
2021/03/11 07:45:45;;;;;;;4.83;3.90;;;;;;;;;;5030318;28;20180;-59
2021/03/11 07:48:14;;;;;;;3.93;2.97;;;;;;;;;;5035952;28;20215;-59
2021/03/11 07:50:41;;;;;;;8.33;4.00;;;;;;;;;;5049226;28;20270;-60
2021/03/11 07:53:07;;;;;;;4.43;3.53;;;;;;;;;;5048356;28;20185;-59
2021/03/11 07:55:34;;;;;;;3.93;3.53;;;;;;;;;;5063146;28;20184;-58
2021/03/11 07:58:10;;;;;;;4.27;3.17;;;;;;;;;;5055458;28;20235;-60
2021/03/11 08:00:36;;;;;;;5.20;3.20;;;;;;;;;;5049358;28;20263;-59
2021/03/11 08:03:05;;;;;;;5.53;3.57;;;;;;;;;;5048620;28;20184;-59
2021/03/11 08:05:31;;;;;;;3.93;3.30;;;;;;;;;;5049590;28;20616;-62
2021/03/11 08:08:12;;;;;;;5.47;3.70;;;;;;;;;;5055145;28;20190;-59
2021/03/11 08:11:02;;;;;;;5.97;3.70;;;;;;;;;;5048113;28;20255;-60
2021/03/11 08:13:32;;;;;;;3.13;2.83;;;;;;;;;;5045764;28;20281;-59
2021/03/11 08:15:59;;;;;;;4.07;3.37;;;;;;;;;;5050261;28;20627;-60
2021/03/11 08:18:34;;;;;;;3.73;3.33;;;;;;;;;;5039432;28;20174;-60
2021/03/11 08:21:07;;;;;;;6.10;3.93;;;;;;;;;;5029660;28;20169;-60
2021/03/11 08:23:34;;;;;;;3.93;2.83;;;;;;;;;;5029157;28;20173;-59
2021/03/11 08:26:01;;;;;;;4.50;3.13;;;;;;;;;;5030293;28;20268;-60
2021/03/11 08:28:30;;;;;;;4.27;3.83;;;;;;;;;;5029258;28;20309;-60
2021/03/11 08:30:57;;;;;;;4.27;2.97;;;;;;;;;;5038210;28;20197;-59
2021/03/11 08:33:26;;;;;;;4.13;3.23;;;;;;;;;;5049511;28;20199;-59
2021/03/11 08:35:55;;;;;;;3.23;2.93;;;;;;;;;;5049317;28;20261;-60
2021/03/11 08:38:21;;;;;;;5.43;3.50;;;;;;;;;;5048848;28;20480;-60
2021/03/11 08:40:53;;;;;;;4.30;3.53;;;;;;;;;;5048908;28;20897;-60
2021/03/11 08:43:41;;;;;;;6.70;4.10;;;;;;;;;;5050700;28;20192;-59
2021/03/11 08:46:10;;;;;;;3.87;3.17;;;;;;;;;;5051382;28;20188;-59
2021/03/11 08:48:40;;;;;;;3.90;2.90;;;;;;;;;;5052428;28;20176;-60
2021/03/11 08:51:06;;;;;;;4.10;3.30;;;;;;;;;;5055804;28;20500;-59
2021/03/11 08:53:38;;;;;;;3.93;3.40;;;;;;;;;;5056054;28;20631;-59
2021/03/11 08:56:17;;;;;;;5.13;3.13;;;;;;;;;;5049805;28;20645;-59
2021/03/11 08:58:53;;;;;;;5.20;3.57;;;;;;;;;;5047852;28;20177;-60
2021/03/11 09:01:43;;;;;;;5.00;3.10;;;;;;;;;;5048637;28;20195;-59
2021/03/11 09:04:21;;;;;;;6.70;2.90;;;;;;;;;;5027947;28;20280;-62
2021/03/11 09:06:50;;;;;;;3.87;2.80;;;;;;;;;;5034066;28;20222;-59
2021/03/11 09:09:16;;;;;;;3.70;2.77;;;;;;;;;;5062300;28;20541;-59
2021/03/11 09:11:55;;;;;;;5.63;2.80;;;;;;;;;;5053787;28;20696;-60
2021/03/11 09:14:25;;;;;;;5.00;2.67;;;;;;;;;;5070062;28;20192;-60
2021/03/11 09:16:51;;;;;;;3.40;2.37;;;;;;;;;;5038850;28;20179;-59
2021/03/11 09:19:17;;;;;;;3.57;2.27;;;;;;;;;;5058140;28;20188;-59
2021/03/11 09:21:46;;;;;;;2.40;2.20;;;;;;;;;;5038388;28;20251;-59
2021/03/11 09:24:18;;;;;;;5.33;2.43;;;;;;;;;;5036209;28;20185;-60
2021/03/11 09:26:50;;;;;;;8.23;2.43;;;;;;;;;;5068865;28;20184;-59
2021/03/11 09:29:16;;;;;;;7.43;2.57;;;;;;;;;;5044967;28;20333;-59
2021/03/11 09:31:47;;;;;;;4.53;2.13;;;;;;;;;;5041475;28;20181;-62
2021/03/11 09:34:13;;;;;;;4.13;1.70;;;;;;;;;;5050692;28;20173;-61
2021/03/11 09:36:47;;;;;;;11.27;2.10;;;;;;;;;;5052786;28;20180;-59
2021/03/11 09:39:13;;;;;;;4.20;1.67;;;;;;;;;;5050065;28;20292;-62
2021/03/11 09:41:39;;;;;;;2.03;1.50;;;;;;;;;;5053808;28;20234;-59
2021/03/11 09:44:06;;;;;;;5.17;1.90;;;;;;;;;;5052561;28;20181;-59
2021/03/11 09:46:32;;;;;;;4.97;1.67;;;;;;;;;;5052298;28;20180;-60
2021/03/11 09:48:59;;;;;;;4.30;1.80;;;;;;;;;;5050683;28;20189;-59
2021/03/11 09:51:26;;;;;;;6.87;1.77;;;;;;;;;;5057158;28;20227;-59
2021/03/11 09:53:59;;;;;;;5.00;1.50;;;;;;;;;;5062726;28;20205;-60
2021/03/11 09:56:38;;;;;;;6.70;2.07;;;;;;;;;;5040022;28;20176;-59
2021/03/11 09:59:09;;;;;;;6.37;2.20;;;;;;;;;;5053612;28;20308;-59
2021/03/11 10:01:39;;;;;;;7.37;2.37;;;;;;;;;;5049947;28;20181;-59
2021/03/11 10:04:18;;;;;;;9.43;2.50;;;;;;;;;;5036474;28;20174;-59
2021/03/11 10:06:51;;;;;;;5.63;2.17;;;;;;;;;;5062200;28;20231;-59
2021/03/11 10:09:17;;;;;;;6.10;2.03;;;;;;;;;;5061404;28;20652;-59
2021/03/11 10:11:48;;;;;;;5.90;2.20;;;;;;;;;;5060413;28;20191;-59
2021/03/11 10:14:18;;;;;;;3.67;1.77;;;;;;;;;;5052569;28;20599;-59
2021/03/11 10:16:46;;;;;;;3.93;2.00;;;;;;;;;;5056502;28;20317;-59
2021/03/11 10:19:12;;;;;;;7.27;1.97;;;;;;;;;;5070638;28;20526;-59
2021/03/11 10:21:49;;;;;;;4.33;1.87;;;;;;;;;;5039367;28;20274;-58
2021/03/11 10:24:29;;;;;;;6.50;2.00;;;;;;;;;;5030919;28;20253;-59
2021/03/11 10:26:55;;;;;;;7.23;2.40;;;;;;;;;;5031581;28;20601;-59
2021/03/11 10:29:23;;;;;;;9.77;2.23;;;;;;;;;;5032444;28;20280;-58
2021/03/11 10:31:49;;;;;;;4.80;1.93;;;;;;;;;;5043116;28;20523;-59
2021/03/11 10:34:15;;;;;;;10.70;2.73;;;;;;;;;;5051292;28;20177;-59
2021/03/11 10:36:54;;;;;;;7.50;2.33;;;;;;;;;;5050761;28;20181;-59
2021/03/11 10:39:20;;;;;;;5.10;1.87;;;;;;;;;;5065513;28;20169;-59
2021/03/11 10:42:02;;;;;;;7.73;2.33;;;;;;;;;;5069437;28;20184;-59
2021/03/11 10:44:33;;;;;;;7.57;2.30;;;;;;;;;;5041502;28;20185;-59
2021/03/11 10:47:12;;;;;;;9.30;2.63;;;;;;;;;;5070332;28;20176;-59
2021/03/11 10:49:39;;;;;;;6.80;3.03;;;;;;;;;;5070477;28;20584;-59
2021/03/11 10:52:05;;;;;;;11.10;3.07;;;;;;;;;;5054107;28;20181;-58
2021/03/11 10:54:32;;;;;;;9.37;2.70;;;;;;;;;;5050576;28;20176;-59
2021/03/11 10:57:17;;;;;;;12.50;2.70;;;;;;;;;;5049011;28;20189;-59
2021/03/11 11:00:03;;;;;;;8.27;2.27;;;;;;;;;;5068616;28;20195;-59
2021/03/11 11:02:30;;;;;;;7.57;2.30;;;;;;;;;;5069246;28;20565;-59
2021/03/11 11:04:58;;;;;;;12.93;2.80;;;;;;;;;;5064819;28;20196;-59
2021/03/11 11:07:24;;;;;;;8.20;2.23;;;;;;;;;;5036820;28;20177;-59
2021/03/11 11:09:50;;;;;;;11.50;3.03;;;;;;;;;;5068131;28;20258;-59
2021/03/11 11:12:18;;;;;;;7.03;2.40;;;;;;;;;;5067416;28;20176;-60
2021/03/11 11:14:44;;;;;;;5.90;2.53;;;;;;;;;;5055622;28;20205;-59
2021/03/11 11:17:11;;;;;;;8.67;2.80;;;;;;;;;;5052263;28;20173;-60
2021/03/11 11:19:38;;;;;;;7.80;2.93;;;;;;;;;;5033972;28;20177;-59
2021/03/11 11:22:04;;;;;;;8.57;2.77;;;;;;;;;;5030958;28;20243;-62
2021/03/11 11:24:30;;;;;;;9.63;2.70;;;;;;;;;;5029683;28;20238;-59
2021/03/11 11:26:56;;;;;;;5.90;2.30;;;;;;;;;;5068306;28;20176;-59
2021/03/11 11:29:24;;;;;;;8.87;2.73;;;;;;;;;;5069860;28;20224;-60
2021/03/11 11:31:50;;;;;;;8.57;2.50;;;;;;;;;;5051451;28;20259;-59
2021/03/11 11:34:16;;;;;;;8.97;2.50;;;;;;;;;;5051025;28;20169;-59
2021/03/11 11:36:42;;;;;;;7.50;2.40;;;;;;;;;;5050378;28;20643;-59
2021/03/11 11:39:09;;;;;;;5.87;2.30;;;;;;;;;;5049135;28;20177;-59
2021/03/11 11:41:37;;;;;;;6.07;2.27;;;;;;;;;;5049523;28;20173;-59
2021/03/11 11:44:03;;;;;;;9.90;3.07;;;;;;;;;;5050697;28;20712;-58
2021/03/11 11:46:29;;;;;;;6.23;2.53;;;;;;;;;;5049651;28;20181;-59
2021/03/11 11:48:55;;;;;;;12.77;2.70;;;;;;;;;;5050908;28;20267;-58
2021/03/11 11:51:21;;;;;;;9.60;3.20;;;;;;;;;;5070146;28;20255;-59
2021/03/11 11:53:47;;;;;;;9.70;3.30;;;;;;;;;;5060697;28;20643;-58
2021/03/11 11:56:14;;;;;;;7.83;2.67;;;;;;;;;;5030827;28;20173;-58
2021/03/11 11:58:44;;;;;;;5.43;2.37;;;;;;;;;;5035377;28;20181;-60
2021/03/11 12:01:11;;;;;;;8.47;3.00;;;;;;;;;;5064838;28;20250;-58
2021/03/11 12:03:37;;;;;;;7.97;2.73;;;;;;;;;;5050533;28;20170;-58
2021/03/11 12:06:03;;;;;;;9.47;2.70;;;;;;;;;;5046008;28;20170;-58
2021/03/11 12:08:29;;;;;;;6.90;2.70;;;;;;;;;;5040658;28;20185;-58
2021/03/11 12:10:55;;;;;;;10.43;2.27;;;;;;;;;;5067359;28;20200;-58
2021/03/11 12:13:21;;;;;;;8.10;2.73;;;;;;;;;;5068133;28;20172;-58
2021/03/11 12:15:47;;;;;;;13.90;3.13;;;;;;;;;;5067844;28;20617;-59
2021/03/11 12:18:13;;;;;;;13.63;3.60;;;;;;;;;;5054688;28;20180;-58
2021/03/11 12:20:39;;;;;;;12.43;3.70;;;;;;;;;;5068356;28;20213;-59
2021/03/11 12:23:06;;;;;;;6.60;2.23;;;;;;;;;;5053497;28;20713;-58
2021/03/11 12:25:32;;;;;;;6.93;3.13;;;;;;;;;;5048612;28;20180;-58
2021/03/11 12:27:58;;;;;;;10.17;3.33;;;;;;;;;;5053140;28;20228;-58
2021/03/11 12:30:25;;;;;;;7.93;2.83;;;;;;;;;;5043954;28;20198;-58
2021/03/11 12:32:51;;;;;;;8.90;3.40;;;;;;;;;;5040773;28;20323;-58
2021/03/11 12:35:17;;;;;;;8.20;3.30;;;;;;;;;;5067708;28;20640;-58
2021/03/11 12:37:44;;;;;;;9.40;2.90;;;;;;;;;;5055865;28;20706;-58
2021/03/11 12:40:10;;;;;;;12.17;3.20;;;;;;;;;;5065262;28;20250;-58
2021/03/11 12:42:36;;;;;;;8.83;3.40;;;;;;;;;;5066491;28;20184;-58
2021/03/11 12:45:03;;;;;;;10.00;2.97;;;;;;;;;;5031943;28;20181;-58
2021/03/11 12:47:29;;;;;;;11.10;3.30;;;;;;;;;;5039194;28;20181;-58
2021/03/11 12:49:55;;;;;;;10.37;3.10;;;;;;;;;;5061940;28;20207;-58
2021/03/11 12:52:21;;;;;;;13.17;3.40;;;;;;;;;;5052033;28;20184;-58
2021/03/11 12:54:47;;;;;;;8.70;2.67;;;;;;;;;;5048696;28;20169;-61
2021/03/11 12:57:14;;;;;;;8.03;2.80;;;;;;;;;;5048108;28;20538;-58
2021/03/11 12:59:39;;;;;;;9.43;3.23;;;;;;;;;;5049033;28;20231;-58
2021/03/11 13:02:05;;;;;;;5.13;2.47;;;;;;;;;;5055719;28;20172;-58
2021/03/11 13:04:31;;;;;;;9.17;3.00;;;;;;;;;;5044249;28;20185;-58
2021/03/11 13:06:57;;;;;;;18.80;3.57;;;;;;;;;;5042006;28;20627;-60
2021/03/11 13:09:24;;;;;;;12.50;3.07;;;;;;;;;;5067943;28;20203;-58
2021/03/11 13:11:50;;;;;;;11.37;3.63;;;;;;;;;;5053716;28;20174;-58
2021/03/11 13:14:16;;;;;;;11.07;2.77;;;;;;;;;;5053332;28;20196;-58
2021/03/11 13:16:42;;;;;;;7.60;2.47;;;;;;;;;;5036346;28;20177;-57
2021/03/11 13:19:09;;;;;;;6.80;2.37;;;;;;;;;;5069077;28;20180;-58
2021/03/11 13:21:35;;;;;;;7.13;2.43;;;;;;;;;;5052488;28;20185;-58
2021/03/11 13:24:01;;;;;;;9.63;3.60;;;;;;;;;;5048748;28;20177;-58
2021/03/11 13:26:27;;;;;;;7.43;2.70;;;;;;;;;;5049302;28;20200;-58
2021/03/11 13:28:53;;;;;;;11.33;3.30;;;;;;;;;;5039534;28;20221;-61
2021/03/11 13:31:19;;;;;;;7.17;2.80;;;;;;;;;;5052497;28;20196;-58
2021/03/11 13:33:45;;;;;;;11.43;2.67;;;;;;;;;;5065586;28;20168;-58
2021/03/11 13:36:11;;;;;;;9.13;2.53;;;;;;;;;;5050594;28;20222;-58
2021/03/11 13:38:37;;;;;;;4.77;2.10;;;;;;;;;;5051812;28;20271;-58
2021/03/11 13:41:03;;;;;;;6.00;3.07;;;;;;;;;;5028965;28;20610;-61
2021/03/11 13:43:29;;;;;;;6.97;2.50;;;;;;;;;;5028822;28;20232;-58
2021/03/11 13:45:55;;;;;;;16.20;3.07;;;;;;;;;;5030341;28;20232;-58
2021/03/11 13:48:21;;;;;;;13.07;3.33;;;;;;;;;;5047400;28;20214;-58
2021/03/11 13:50:47;;;;;;;6.77;2.60;;;;;;;;;;5053115;28;20197;-58
2021/03/11 13:53:13;;;;;;;8.10;2.40;;;;;;;;;;5051974;28;20181;-59
2021/03/11 13:55:39;;;;;;;9.13;2.60;;;;;;;;;;5039775;28;20208;-59
2021/03/11 13:58:05;;;;;;;9.97;2.93;;;;;;;;;;5061784;28;20276;-58
2021/03/11 14:00:32;;;;;;;7.17;2.27;;;;;;;;;;5050340;28;20227;-58
2021/03/11 14:02:59;;;;;;;10.97;2.57;;;;;;;;;;5046919;28;20566;-61
2021/03/11 14:05:25;;;;;;;7.03;2.37;;;;;;;;;;5040775;28;20189;-58
2021/03/11 14:07:51;;;;;;;7.60;2.73;;;;;;;;;;5042251;28;20185;-58
2021/03/11 14:10:17;;;;;;;6.30;2.37;;;;;;;;;;5049112;28;20315;-58
2021/03/11 14:12:43;;;;;;;6.37;2.37;;;;;;;;;;5045010;28;20635;-58
2021/03/11 14:15:09;;;;;;;11.73;2.27;;;;;;;;;;5051298;28;20173;-58
2021/03/11 14:17:36;;;;;;;5.43;2.73;;;;;;;;;;5050007;28;20216;-58
2021/03/11 14:20:03;;;;;;;7.03;2.60;;;;;;;;;;5046234;28;20662;-58
2021/03/11 14:22:29;;;;;;;9.80;3.63;;;;;;;;;;5044291;28;20228;-58
2021/03/11 14:24:55;;;;;;;9.57;3.57;;;;;;;;;;5043317;28;20510;-58
2021/03/11 14:27:25;;;;;;;10.10;3.47;;;;;;;;;;5043859;28;20174;-58
2021/03/11 14:29:51;;;;;;;12.33;3.30;;;;;;;;;;5044949;28;20482;-58
2021/03/11 14:32:17;;;;;;;5.73;2.90;;;;;;;;;;5043547;28;20805;-58
2021/03/11 14:34:43;;;;;;;7.60;3.17;;;;;;;;;;5040687;28;20239;-58
2021/03/11 14:37:09;;;;;;;12.00;3.43;;;;;;;;;;5047891;28;20189;-58
2021/03/11 14:39:35;;;;;;;9.40;2.87;;;;;;;;;;5043822;28;20177;-58
2021/03/11 14:42:01;;;;;;;7.77;2.73;;;;;;;;;;5053841;28;20177;-58